createdAt,value
2018-09-02T00:01:17.096Z,6.62
2018-09-02T00:03:48.419Z,6.15
2018-09-02T00:06:18.480Z,5.70
2018-09-02T00:08:50.201Z,6.28
2018-09-02T00:11:20.546Z,6.53
2018-09-02T00:13:51.670Z,8.30
2018-09-02T00:16:23.708Z,7.97
2018-09-02T00:18:54.424Z,9.10
2018-09-02T00:21:25.842Z,8.90
2018-09-02T00:23:55.889Z,7.47
2018-09-02T00:26:29.427Z,7.20
2018-09-02T00:29:00.880Z,7.23
2018-09-02T00:31:32.141Z,7.33
2018-09-02T00:34:04.589Z,7.40
2018-09-02T00:36:36.018Z,6.92
2018-09-02T00:39:10.482Z,7.08
2018-09-02T00:41:41.010Z,5.60
2018-09-02T00:44:12.708Z,7.22
2018-09-02T00:46:44.007Z,8.50
2018-09-02T00:49:16.094Z,6.60
2018-09-02T00:51:47.686Z,6.47
2018-09-02T00:54:18.176Z,7.70
2018-09-02T00:56:49.894Z,6.35
2018-09-02T00:59:19.948Z,5.30
2018-09-02T01:01:51.255Z,6.08
2018-09-02T01:04:22.518Z,9.48
2018-09-02T01:06:52.517Z,6.67
2018-09-02T01:09:24.018Z,5.55
2018-09-02T01:11:54.118Z,5.28
2018-09-02T01:14:25.069Z,6.50
2018-09-02T01:16:56.079Z,6.45
2018-09-02T01:19:26.470Z,7.22
2018-09-02T01:21:57.307Z,6.97
2018-09-02T01:24:27.756Z,6.47
2018-09-02T01:26:58.206Z,6.47
2018-09-02T01:29:29.785Z,5.70
2018-09-02T01:32:01.060Z,5.50
2018-09-02T01:34:35.192Z,7.10
2018-09-02T01:37:05.720Z,5.17
2018-09-02T01:39:36.299Z,6.72
2018-09-02T01:42:07.421Z,7.42
2018-09-02T01:44:38.240Z,7.58
2018-09-02T01:47:10.095Z,6.65
2018-09-02T01:49:41.911Z,4.95
2018-09-02T01:52:13.188Z,6.92
2018-09-02T01:54:43.645Z,7.40
2018-09-02T01:57:14.484Z,6.78
2018-09-02T01:59:46.533Z,7.60
2018-09-02T02:02:16.976Z,5.67
2018-09-02T02:04:47.541Z,5.92
2018-09-02T02:07:18.568Z,5.45
2018-09-02T02:09:50.317Z,6.50
2018-09-02T02:12:21.011Z,5.75
2018-09-02T02:14:58.348Z,6.50
2018-09-02T02:17:39.295Z,7.28
2018-09-02T02:20:09.615Z,6.00
2018-09-02T02:22:41.933Z,5.90
2018-09-02T02:25:12.014Z,6.92
2018-09-02T02:27:43.150Z,6.00
2018-09-02T02:30:15.235Z,6.30
2018-09-02T02:32:45.752Z,6.12
2018-09-02T02:35:16.424Z,6.17
2018-09-02T02:37:47.785Z,6.47
2018-09-02T02:40:18.263Z,5.85
2018-09-02T02:42:50.335Z,6.83
2018-09-02T02:45:21.390Z,6.75
2018-09-02T02:47:52.294Z,5.65
2018-09-02T02:50:22.415Z,5.75
2018-09-02T02:52:57.944Z,5.90
2018-09-02T02:55:28.392Z,5.58
2018-09-02T02:57:59.487Z,5.30
2018-09-02T03:00:30.734Z,6.00
2018-09-02T03:03:01.527Z,6.55
2018-09-02T03:05:32.614Z,4.40
2018-09-02T03:08:03.704Z,5.62
2018-09-02T03:10:35.792Z,6.45
2018-09-02T03:13:06.964Z,5.40
2018-09-02T03:15:38.212Z,5.87
2018-09-02T03:18:09.878Z,5.10
2018-09-02T03:20:40.219Z,5.92
2018-09-02T03:23:10.245Z,5.43
2018-09-02T03:25:42.303Z,6.55
2018-09-02T03:28:14.790Z,8.30
2018-09-02T03:30:45.759Z,7.87
2018-09-02T03:33:18.034Z,6.58
2018-09-02T03:35:48.746Z,7.47
2018-09-02T03:38:18.972Z,6.78
2018-09-02T03:40:51.434Z,7.47
2018-09-02T03:43:22.490Z,6.80
2018-09-02T03:45:53.724Z,8.35
2018-09-02T03:48:23.806Z,8.03
2018-09-02T03:50:55.540Z,7.20
2018-09-02T03:53:25.956Z,6.83
2018-09-02T03:55:57.057Z,7.05
2018-09-02T03:58:27.128Z,7.80
2018-09-02T04:00:58.442Z,8.50
2018-09-02T04:03:28.575Z,8.25
2018-09-02T04:05:59.764Z,9.63
2018-09-02T04:08:31.781Z,8.03
2018-09-02T04:11:02.894Z,10.35
2018-09-02T04:13:33.017Z,8.80
2018-09-02T04:16:08.981Z,8.08
2018-09-02T04:18:39.706Z,7.72
2018-09-02T04:21:11.170Z,9.20
2018-09-02T04:23:42.407Z,10.82
2018-09-02T04:26:12.952Z,10.82
2018-09-02T04:28:45.346Z,10.43
2018-09-02T04:31:15.826Z,11.03
2018-09-02T04:33:47.420Z,10.15
2018-09-02T04:36:17.970Z,10.20
2018-09-02T04:38:48.972Z,12.25
2018-09-02T04:41:19.392Z,12.85
2018-09-02T04:43:53.506Z,14.03
2018-09-02T04:46:27.104Z,12.60
2018-09-02T04:48:57.319Z,14.00
2018-09-02T04:51:28.949Z,15.05
2018-09-02T04:53:59.116Z,14.75
2018-09-02T04:56:29.562Z,16.97
2018-09-02T04:59:00.879Z,13.98
2018-09-02T05:01:31.193Z,13.10
2018-09-02T05:04:01.899Z,15.85
2018-09-02T05:06:33.054Z,18.02
2018-09-02T05:09:05.456Z,15.93
2018-09-02T05:11:35.616Z,14.05
2018-09-02T05:14:06.081Z,16.10
2018-09-02T05:16:37.816Z,13.38
2018-09-02T05:19:09.482Z,16.23
2018-09-02T05:21:39.498Z,15.77
2018-09-02T05:24:10.072Z,16.02
2018-09-02T05:26:41.933Z,16.25
2018-09-02T05:29:13.042Z,15.10
2018-09-02T05:31:45.814Z,15.40
2018-09-02T05:34:15.862Z,17.85
2018-09-02T05:36:46.397Z,15.05
2018-09-02T05:39:19.003Z,15.93
2018-09-02T05:41:49.429Z,17.50
2018-09-02T05:44:20.760Z,15.38
2018-09-02T05:46:53.868Z,16.93
2018-09-02T05:49:25.827Z,15.20
2018-09-02T05:51:58.278Z,16.73
2018-09-02T05:54:31.704Z,17.97
2018-09-02T05:57:04.077Z,16.23
2018-09-02T05:59:34.997Z,14.65
2018-09-02T06:02:05.869Z,15.05
2018-09-02T06:04:36.330Z,15.20
2018-09-02T06:07:07.702Z,14.07
2018-09-02T06:09:42.564Z,15.58
2018-09-02T06:12:13.678Z,12.93
2018-09-02T06:14:45.333Z,13.83
2018-09-02T06:17:17.097Z,14.68
2018-09-02T06:19:47.397Z,15.65
2018-09-02T06:22:17.840Z,13.95
2018-09-02T06:24:48.501Z,13.60
2018-09-02T06:27:19.143Z,14.38
2018-09-02T06:29:54.054Z,14.25
2018-09-02T06:32:26.031Z,13.25
2018-09-02T06:34:56.373Z,15.05
2018-09-02T06:37:30.967Z,13.10
2018-09-02T06:40:03.304Z,12.45
2018-09-02T06:42:34.564Z,13.62
2018-09-02T06:45:09.374Z,13.40
2018-09-02T06:47:40.184Z,12.43
2018-09-02T06:50:11.775Z,13.28
2018-09-02T06:52:46.246Z,11.30
2018-09-02T06:55:16.551Z,13.15
2018-09-02T06:57:47.829Z,11.60
2018-09-02T07:00:19.487Z,11.03
2018-09-02T07:02:50.105Z,12.13
2018-09-02T07:05:20.561Z,11.90
2018-09-02T07:07:51.080Z,12.53
2018-09-02T07:10:21.201Z,11.85
2018-09-02T07:12:51.633Z,10.50
2018-09-02T07:15:23.109Z,10.90
2018-09-02T07:17:53.308Z,10.98
2018-09-02T07:20:23.605Z,10.10
2018-09-02T07:22:55.651Z,9.65
2018-09-02T07:25:26.820Z,8.68
2018-09-02T07:27:57.021Z,9.30
2018-09-02T07:30:27.739Z,9.10
2018-09-02T07:32:58.919Z,8.43
2018-09-02T07:35:30.315Z,8.23
2018-09-02T07:38:00.509Z,8.90
2018-09-02T07:40:32.913Z,9.40
2018-09-02T07:43:03.681Z,11.08
2018-09-02T07:45:33.758Z,8.45
2018-09-02T07:48:05.351Z,9.35
2018-09-02T07:50:35.431Z,9.53
2018-09-02T07:53:05.827Z,8.75
2018-09-02T07:55:37.066Z,8.93
2018-09-02T07:58:07.780Z,8.60
2018-09-02T08:00:38.990Z,8.35
2018-09-02T08:03:11.922Z,8.50
2018-09-02T08:05:42.530Z,9.68
2018-09-02T08:08:13.911Z,8.75
2018-09-02T08:10:45.138Z,8.45
2018-09-02T08:13:17.534Z,7.35
2018-09-02T08:15:50.349Z,8.18
2018-09-02T08:18:23.741Z,8.50
2018-09-02T08:20:54.586Z,8.15
2018-09-02T08:23:26.925Z,7.37
2018-09-02T08:25:58.422Z,8.20
2018-09-02T08:28:29.236Z,8.60
2018-09-02T08:31:00.281Z,8.05
2018-09-02T08:33:31.879Z,9.20
2018-09-02T08:36:02.414Z,10.20
2018-09-02T08:38:33.582Z,7.45
2018-09-02T08:41:05.048Z,7.60
2018-09-02T08:43:36.471Z,7.40
2018-09-02T08:46:07.844Z,7.62
2018-09-02T08:48:39.283Z,7.95
2018-09-02T08:51:11.015Z,8.70
2018-09-02T08:53:42.465Z,7.10
2018-09-02T08:56:16.573Z,9.33
2018-09-02T08:58:47.360Z,34.27
2018-09-02T09:01:19.414Z,29.35
2018-09-02T09:03:50.300Z,8.23
2018-09-02T09:06:22.262Z,6.67
2018-09-02T09:08:54.123Z,7.12
2018-09-02T09:11:26.670Z,8.75
2018-09-02T09:13:57.537Z,6.30
2018-09-02T09:16:28.627Z,6.30
2018-09-02T09:19:00.010Z,6.53
2018-09-02T09:21:31.664Z,7.47
2018-09-02T09:24:03.657Z,6.92
2018-09-02T09:26:34.927Z,7.58
2018-09-02T09:29:05.794Z,6.05
2018-09-02T09:31:43.544Z,5.50
2018-09-02T09:34:13.652Z,4.37
2018-09-02T09:36:43.950Z,5.35
2018-09-02T09:39:15.934Z,4.78
2018-09-02T09:41:46.826Z,4.03
2018-09-02T09:44:17.154Z,4.78
2018-09-02T09:46:48.694Z,7.17
2018-09-02T09:49:21.199Z,4.50
2018-09-02T09:51:53.021Z,4.65
2018-09-02T09:54:23.125Z,5.50
2018-09-02T09:56:54.248Z,6.60
2018-09-02T09:59:24.447Z,4.80
2018-09-02T10:01:56.016Z,3.22
2018-09-02T10:04:26.128Z,3.65
2018-09-02T10:06:57.280Z,3.77
2018-09-02T10:09:27.707Z,4.53
2018-09-02T10:12:01.918Z,3.40
2018-09-02T10:14:34.409Z,3.02
2018-09-02T10:17:08.342Z,2.77
2018-09-02T10:19:40.878Z,4.12
2018-09-02T10:22:13.560Z,3.77
2018-09-02T10:24:45.325Z,3.40
2018-09-02T10:27:16.524Z,3.27
2018-09-02T10:29:51.283Z,3.17
2018-09-02T10:32:23.658Z,3.15
2018-09-02T10:34:53.775Z,3.05
2018-09-02T10:37:24.124Z,2.00
2018-09-02T10:39:54.608Z,2.33
2018-09-02T10:42:25.233Z,3.05
2018-09-02T10:44:56.527Z,4.63
2018-09-02T10:47:27.971Z,2.50
2018-09-02T10:49:58.182Z,3.08
2018-09-02T10:52:32.315Z,2.60
2018-09-02T10:55:03.285Z,2.52
2018-09-02T10:57:35.132Z,2.85
2018-09-02T11:00:08.086Z,2.47
2018-09-02T11:02:41.591Z,3.15
2018-09-02T11:05:12.321Z,3.02
2018-09-02T11:07:43.986Z,2.62
2018-09-02T11:10:16.640Z,3.00
2018-09-02T11:12:47.783Z,2.37
2018-09-02T11:15:20.621Z,2.30
2018-09-02T11:17:54.189Z,1.90
2018-09-02T11:20:25.177Z,2.50
2018-09-02T11:22:56.808Z,2.30
2018-09-02T11:25:28.467Z,2.83
2018-09-02T11:27:59.371Z,2.72
2018-09-02T11:30:30.284Z,2.67
2018-09-02T11:33:01.882Z,2.75
2018-09-02T11:35:32.481Z,2.23
2018-09-02T11:38:04.033Z,2.40
2018-09-02T11:40:35.093Z,2.80
2018-09-02T11:43:05.611Z,2.58
2018-09-02T11:45:36.607Z,2.77
2018-09-02T11:48:07.483Z,2.95
2018-09-02T11:50:39.164Z,3.83
2018-09-02T11:53:10.408Z,2.40
2018-09-02T11:55:42.285Z,2.55
2018-09-02T11:58:12.819Z,2.40
2018-09-02T12:00:43.075Z,3.50
2018-09-02T12:03:15.827Z,2.73
2018-09-02T12:05:47.557Z,2.47
2018-09-02T12:08:17.711Z,3.10
2018-09-02T12:10:48.302Z,2.50
2018-09-02T12:13:22.629Z,3.30
2018-09-02T12:15:52.688Z,3.42
2018-09-02T12:18:24.476Z,3.27
2018-09-02T12:20:57.076Z,2.60
2018-09-02T12:23:28.406Z,2.60
2018-09-02T12:25:59.512Z,2.52
2018-09-02T12:28:31.592Z,2.60
2018-09-02T12:31:02.289Z,3.42
2018-09-02T12:33:32.935Z,2.97
2018-09-02T12:36:05.714Z,2.47
2018-09-02T12:38:38.055Z,2.30
2018-09-02T12:41:09.485Z,2.60
2018-09-02T12:43:42.521Z,5.80
2018-09-02T12:46:13.723Z,2.62
2018-09-02T12:48:43.841Z,3.25
2018-09-02T12:51:15.707Z,3.03
2018-09-02T12:53:46.712Z,3.33
2018-09-02T12:56:18.225Z,4.13
2018-09-02T12:58:54.115Z,3.70
2018-09-02T13:01:24.564Z,4.03
2018-09-02T13:03:54.634Z,2.83
2018-09-02T13:06:26.422Z,3.12
2018-09-02T13:08:57.424Z,4.65
2018-09-02T13:11:28.516Z,2.60
2018-09-02T13:13:59.209Z,3.30
2018-09-02T13:16:29.436Z,4.42
2018-09-02T13:19:00.923Z,3.58
2018-09-02T13:21:31.809Z,4.10
2018-09-02T13:24:04.303Z,4.00
2018-09-02T13:26:36.434Z,4.03
2018-09-02T13:29:08.539Z,4.25
2018-09-02T13:31:39.724Z,4.80
2018-09-02T13:34:10.623Z,4.40
2018-09-02T13:36:42.805Z,4.60
2018-09-02T13:39:18.157Z,4.40
2018-09-02T13:41:50.270Z,4.50
2018-09-02T13:44:22.882Z,4.17
2018-09-02T13:46:53.624Z,4.67
2018-09-02T13:49:26.392Z,4.50
2018-09-02T13:51:57.915Z,5.12
2018-09-02T13:54:29.464Z,4.95
2018-09-02T13:56:59.943Z,5.20
2018-09-02T13:59:31.150Z,5.05
2018-09-02T14:02:01.378Z,5.20
2018-09-02T14:04:32.501Z,5.97
2018-09-02T14:07:02.977Z,5.40
2018-09-02T14:09:35.214Z,5.30
2018-09-02T14:12:05.784Z,5.85
2018-09-02T14:14:36.224Z,5.37
2018-09-02T14:17:07.224Z,6.28
2018-09-02T14:19:37.512Z,5.58
2018-09-02T14:22:08.049Z,6.53
2018-09-02T14:24:39.705Z,5.70
2018-09-02T14:27:11.607Z,6.05
2018-09-02T14:29:43.168Z,5.97
2018-09-02T14:32:13.900Z,6.15
2018-09-02T14:34:46.606Z,6.07
2018-09-02T14:37:18.992Z,5.72
2018-09-02T14:39:51.126Z,6.08
2018-09-02T14:42:24.941Z,6.55
2018-09-02T14:44:55.979Z,7.28
2018-09-02T14:47:27.051Z,6.08
2018-09-02T14:50:00.658Z,6.20
2018-09-02T14:52:32.145Z,6.20
2018-09-02T14:55:03.583Z,6.60
2018-09-02T14:57:34.133Z,6.65
2018-09-02T15:00:07.721Z,6.60
2018-09-02T15:02:40.935Z,7.08
2018-09-02T15:05:11.333Z,7.42
2018-09-02T15:07:42.493Z,6.95
2018-09-02T15:10:13.389Z,7.15
2018-09-02T15:12:43.577Z,7.22
2018-09-02T15:15:13.779Z,7.17
2018-09-02T15:17:43.935Z,7.27
2018-09-02T15:20:14.327Z,7.85
2018-09-02T15:22:44.537Z,7.10
2018-09-02T15:25:17.037Z,7.37
2018-09-02T15:27:47.543Z,7.97
2018-09-02T15:30:17.779Z,7.75
2018-09-02T15:32:50.141Z,8.10
2018-09-02T15:35:21.503Z,7.90
2018-09-02T15:37:51.642Z,8.15
2018-09-02T15:40:23.007Z,8.98
2018-09-02T15:42:59.857Z,8.15
2018-09-02T15:45:32.525Z,7.40
2018-09-02T15:48:04.174Z,8.08
2018-09-02T15:50:35.136Z,7.85
2018-09-02T15:53:07.336Z,7.28
2018-09-02T15:55:38.458Z,8.30
2018-09-02T15:58:10.556Z,8.23
2018-09-02T16:00:42.744Z,8.28
2018-09-02T16:03:15.154Z,8.20
2018-09-02T16:05:46.836Z,7.67
2018-09-02T16:08:18.153Z,7.47
2018-09-02T16:10:49.532Z,7.47
2018-09-02T16:13:20.122Z,7.53
2018-09-02T16:15:51.909Z,6.90
2018-09-02T16:18:22.393Z,8.25
2018-09-02T16:20:52.944Z,6.75
2018-09-02T16:23:23.511Z,7.37
2018-09-02T16:25:56.054Z,6.97
2018-09-02T16:28:27.698Z,7.73
2018-09-02T16:30:59.064Z,7.10
2018-09-02T16:33:29.458Z,6.45
2018-09-02T16:36:00.566Z,6.28
2018-09-02T16:38:31.876Z,7.30
2018-09-02T16:41:02.588Z,7.75
2018-09-02T16:43:33.758Z,6.57
2018-09-02T16:46:04.870Z,6.87
2018-09-02T16:48:36.118Z,7.25
2018-09-02T16:51:06.648Z,8.00
2018-09-02T16:53:38.850Z,7.65
2018-09-02T16:56:10.286Z,7.08
2018-09-02T16:58:43.035Z,10.65
2018-09-02T17:01:14.432Z,8.20
2018-09-02T17:03:48.458Z,6.72
2018-09-02T17:06:20.361Z,7.05
2018-09-02T17:08:50.515Z,6.30
2018-09-02T17:11:21.136Z,6.80
2018-09-02T17:13:53.499Z,7.20
2018-09-02T17:16:24.978Z,7.00
2018-09-02T17:19:01.210Z,6.78
2018-09-02T17:21:32.292Z,6.60
2018-09-02T17:24:02.440Z,7.20
2018-09-02T17:26:33.224Z,7.78
2018-09-02T17:29:05.740Z,7.55
2018-09-02T17:31:38.409Z,7.00
2018-09-02T17:34:11.357Z,7.50
2018-09-02T17:36:42.440Z,9.40
2018-09-02T17:39:13.345Z,9.20
2018-09-02T17:41:43.987Z,8.70
2018-09-02T17:44:16.070Z,8.80
2018-09-02T17:46:47.267Z,8.73
2018-09-02T17:49:20.305Z,9.75
2018-09-02T17:51:51.185Z,9.40
2018-09-02T17:54:22.343Z,10.50
2018-09-02T17:56:54.454Z,9.48
2018-09-02T17:59:26.489Z,10.10
2018-09-02T18:01:58.571Z,10.10
2018-09-02T18:04:30.312Z,10.43
2018-09-02T18:07:02.496Z,10.50
2018-09-02T18:09:34.663Z,10.58
2018-09-02T18:12:04.865Z,12.37
2018-09-02T18:14:37.409Z,11.60
2018-09-02T18:17:09.296Z,12.47
2018-09-02T18:19:40.677Z,12.00
2018-09-02T18:22:12.320Z,12.00
2018-09-02T18:24:42.723Z,12.73
2018-09-02T18:27:13.797Z,12.60
2018-09-02T18:29:48.221Z,12.80
2018-09-02T18:32:19.246Z,13.47
2018-09-02T18:34:49.531Z,13.72
2018-09-02T18:37:19.879Z,14.75
2018-09-02T18:39:51.205Z,14.17
2018-09-02T18:42:21.592Z,14.13
2018-09-02T18:44:51.812Z,16.60
2018-09-02T18:47:22.054Z,14.30
2018-09-02T18:49:54.419Z,14.93
2018-09-02T18:52:25.710Z,15.90
2018-09-02T18:54:56.739Z,14.55
2018-09-02T18:57:27.935Z,14.87
2018-09-02T18:59:59.106Z,14.28
2018-09-02T19:02:29.957Z,14.13
2018-09-02T19:05:00.327Z,16.37
2018-09-02T19:07:32.662Z,16.17
2018-09-02T19:10:14.501Z,16.17
2018-09-02T19:12:47.524Z,15.53
2018-09-02T19:15:21.055Z,15.80
2018-09-02T19:17:55.814Z,15.43
2018-09-02T19:20:33.140Z,16.23
2018-09-02T19:23:04.068Z,16.65
2018-09-02T19:25:35.010Z,17.65
2018-09-02T19:28:09.086Z,18.17
2018-09-02T19:30:41.275Z,17.23
2018-09-02T19:33:14.632Z,17.57
2018-09-02T19:35:46.019Z,18.82
2018-09-02T19:38:16.870Z,18.60
2018-09-02T19:40:47.000Z,23.40
2018-09-02T19:43:19.085Z,20.92
2018-09-02T19:45:49.731Z,21.73
2018-09-02T19:48:20.883Z,20.45
2018-09-02T19:50:51.763Z,20.23
2018-09-02T19:53:22.251Z,20.90
2018-09-02T19:55:53.382Z,23.27
2018-09-02T19:58:23.650Z,19.50
2018-09-02T20:00:53.844Z,22.05
2018-09-02T20:03:26.641Z,21.97
2018-09-02T20:05:57.707Z,21.68
2018-09-02T20:08:28.567Z,21.33
2018-09-02T20:10:59.022Z,21.75
2018-09-02T20:13:29.501Z,19.70
2018-09-02T20:16:00.935Z,22.02
2018-09-02T20:18:31.082Z,21.75
2018-09-02T20:21:02.418Z,21.10
2018-09-02T20:23:32.658Z,22.30
2018-09-02T20:26:03.058Z,22.70
2018-09-02T20:28:33.406Z,21.77
2018-09-02T20:31:03.952Z,20.97
2018-09-02T20:33:35.078Z,24.37
2018-09-02T20:36:06.463Z,28.73
2018-09-02T20:38:36.641Z,28.98
2018-09-02T20:41:06.970Z,27.10
2018-09-02T20:43:37.128Z,28.07
2018-09-02T20:46:07.316Z,23.77
2018-09-02T20:48:37.528Z,26.25
2018-09-02T20:51:08.483Z,28.02
2018-09-02T20:53:38.550Z,24.43
2018-09-02T20:56:08.792Z,24.57
2018-09-02T20:58:39.150Z,25.17
2018-09-02T21:01:09.326Z,24.00
2018-09-02T21:03:39.554Z,26.23
2018-09-02T21:06:10.013Z,27.60
2018-09-02T21:08:40.454Z,24.60
2018-09-02T21:11:11.597Z,23.77
2018-09-02T21:13:41.846Z,25.77
2018-09-02T21:16:14.835Z,26.33
2018-09-02T21:18:46.473Z,27.20
2018-09-02T21:21:17.602Z,25.27
2018-09-02T21:23:49.180Z,26.42
2018-09-02T21:26:19.649Z,25.88
2018-09-02T21:28:51.639Z,25.40
2018-09-02T21:31:22.678Z,25.60
2018-09-02T21:33:56.398Z,27.52
2018-09-02T21:36:34.348Z,33.08
2018-09-02T21:39:07.030Z,32.95
2018-09-02T21:41:37.597Z,32.30
2018-09-02T21:44:32.944Z,32.30
2018-09-02T21:47:17.509Z,29.95
2018-09-02T21:49:52.899Z,30.00
2018-09-02T21:52:25.101Z,30.23
2018-09-02T21:54:58.586Z,27.73
2018-09-02T21:57:37.903Z,25.52
2018-09-02T22:00:12.623Z,25.17
2018-09-02T22:02:56.362Z,28.07
2018-09-02T22:05:31.110Z,26.82
2018-09-02T22:08:07.791Z,27.97
2018-09-02T22:10:39.766Z,30.05
2018-09-02T22:13:38.102Z,34.27
2018-09-02T22:16:14.654Z,30.90
2018-09-02T22:18:45.283Z,31.37
2018-09-02T22:21:20.016Z,33.63
2018-09-02T22:23:50.827Z,36.53
2018-09-02T22:26:23.132Z,34.48
2018-09-02T22:28:53.766Z,35.80
2018-09-02T22:31:25.932Z,33.80
2018-09-02T22:33:56.580Z,33.92
2018-09-02T22:36:28.106Z,34.85
2018-09-02T22:39:00.809Z,37.93
2018-09-02T22:41:31.345Z,38.23
2018-09-02T22:44:02.636Z,34.88
2018-09-02T22:46:34.043Z,33.00
2018-09-02T22:49:04.855Z,32.80
2018-09-02T22:51:38.489Z,38.85
2018-09-02T22:54:10.059Z,35.03
2018-09-02T22:56:40.920Z,31.93
2018-09-02T22:59:11.587Z,36.97
2018-09-02T23:01:42.049Z,32.80
2018-09-02T23:04:14.269Z,33.60
2018-09-02T23:06:45.265Z,29.40
2018-09-02T23:09:15.845Z,29.80
2018-09-02T23:11:48.295Z,27.25
2018-09-02T23:14:18.995Z,27.75
2018-09-02T23:16:50.919Z,26.85
2018-09-02T23:19:21.111Z,28.52
2018-09-02T23:21:52.354Z,28.38
2018-09-02T23:24:23.617Z,26.37
2018-09-02T23:26:54.454Z,26.87
2018-09-02T23:29:25.862Z,28.77
2018-09-02T23:31:57.026Z,28.12
2018-09-02T23:34:27.717Z,27.13
2018-09-02T23:36:59.023Z,29.75
2018-09-02T23:39:29.119Z,26.45
2018-09-02T23:41:59.143Z,27.50
2018-09-02T23:44:29.332Z,25.82
2018-09-02T23:46:59.762Z,25.62
2018-09-02T23:49:30.758Z,24.60
2018-09-02T23:52:00.816Z,26.23
2018-09-02T23:54:31.706Z,28.20
2018-09-02T23:57:01.813Z,28.62
2018-09-02T23:59:31.954Z,25.65
